createdAt,value
2022-10-13T00:00:55.995Z,0
2022-10-13T00:01:59.383Z,0
2022-10-13T00:03:02.270Z,0
2022-10-13T00:04:05.435Z,0
2022-10-13T00:05:08.855Z,0
2022-10-13T00:06:11.301Z,0
2022-10-13T00:07:14.099Z,0
2022-10-13T00:08:17.439Z,0
2022-10-13T00:09:20.244Z,0
2022-10-13T00:10:24.611Z,0
2022-10-13T00:11:27.690Z,0
2022-10-13T00:12:31.229Z,0
2022-10-13T00:13:34.695Z,0
2022-10-13T00:14:38.010Z,0
2022-10-13T00:15:40.821Z,0
2022-10-13T00:16:43.539Z,0
2022-10-13T00:17:46.632Z,0
2022-10-13T00:18:49.453Z,0
2022-10-13T00:19:52.522Z,0
2022-10-13T00:20:55.507Z,0
2022-10-13T00:21:57.947Z,0
2022-10-13T00:23:01.213Z,0
2022-10-13T00:24:03.735Z,0
2022-10-13T00:25:06.622Z,0
2022-10-13T00:26:10.724Z,0
2022-10-13T00:27:13.618Z,0
2022-10-13T00:28:16.669Z,0
2022-10-13T00:29:20.446Z,0
2022-10-13T00:30:23.234Z,0
2022-10-13T00:31:25.759Z,0
2022-10-13T00:32:29.258Z,0
2022-10-13T00:33:32.986Z,0
2022-10-13T00:34:35.865Z,0
2022-10-13T00:35:38.757Z,0
2022-10-13T00:36:41.928Z,0
2022-10-13T00:37:44.074Z,0
2022-10-13T00:38:47.206Z,0
2022-10-13T00:39:50.370Z,0
2022-10-13T00:40:53.736Z,0
2022-10-13T00:41:58.130Z,0
2022-10-13T00:43:01.344Z,0
2022-10-13T00:44:04.064Z,0
2022-10-13T00:45:06.574Z,0
2022-10-13T00:46:09.959Z,0
2022-10-13T00:47:13.428Z,0
2022-10-13T00:48:16.590Z,0
2022-10-13T00:49:19.677Z,0
2022-10-13T00:50:23.188Z,0
2022-10-13T00:51:26.338Z,0
2022-10-13T00:52:30.117Z,0
2022-10-13T00:53:32.349Z,0
2022-10-13T00:54:35.785Z,0
2022-10-13T00:55:39.026Z,0
2022-10-13T00:56:41.945Z,0
2022-10-13T00:57:46.136Z,0
2022-10-13T00:58:49.218Z,0
2022-10-13T00:59:52.210Z,0
2022-10-13T01:00:54.971Z,0
2022-10-13T01:01:58.389Z,0
2022-10-13T01:03:00.985Z,0
2022-10-13T01:04:03.880Z,0
2022-10-13T01:05:06.761Z,0
2022-10-13T01:06:08.911Z,0
2022-10-13T01:07:11.719Z,0
2022-10-13T01:08:14.605Z,0
2022-10-13T01:09:17.670Z,0
2022-10-13T01:10:20.564Z,0
2022-10-13T01:11:22.442Z,0
2022-10-13T01:12:25.335Z,0
2022-10-13T01:13:29.525Z,0
2022-10-13T01:14:32.705Z,0
2022-10-13T01:15:35.967Z,0
2022-10-13T01:16:39.309Z,0
2022-10-13T01:17:42.582Z,0
2022-10-13T01:18:45.571Z,0
2022-10-13T01:19:48.158Z,0
2022-10-13T01:20:51.422Z,0
2022-10-13T01:21:55.095Z,0
2022-10-13T01:22:58.353Z,0
2022-10-13T01:24:01.154Z,0
2022-10-13T01:25:04.249Z,0
2022-10-13T01:26:06.927Z,0
2022-10-13T01:27:10.291Z,0
2022-10-13T01:28:13.534Z,0
2022-10-13T01:29:17.933Z,0
2022-10-13T01:30:20.808Z,0
2022-10-13T01:31:24.342Z,0
2022-10-13T01:32:27.787Z,0
2022-10-13T01:33:30.873Z,0
2022-10-13T01:34:34.389Z,0
2022-10-13T01:35:37.817Z,0
2022-10-13T01:36:41.312Z,0
2022-10-13T01:37:44.460Z,0
2022-10-13T01:38:47.080Z,0
2022-10-13T01:39:49.380Z,0
2022-10-13T01:40:52.162Z,0
2022-10-13T01:41:55.606Z,0
2022-10-13T01:42:58.130Z,0
2022-10-13T01:44:01.241Z,0
2022-10-13T01:45:05.464Z,0
2022-10-13T01:46:08.344Z,0
2022-10-13T01:47:11.144Z,0
2022-10-13T01:48:14.089Z,0
2022-10-13T01:49:17.551Z,0
2022-10-13T01:50:20.447Z,0
2022-10-13T01:51:23.527Z,0
2022-10-13T01:52:26.976Z,0
2022-10-13T01:53:29.857Z,0
2022-10-13T01:54:32.932Z,0
2022-10-13T01:55:36.447Z,0
2022-10-13T01:56:39.446Z,0
2022-10-13T01:57:42.249Z,0
2022-10-13T01:58:45.320Z,0
2022-10-13T01:59:47.929Z,0
2022-10-13T02:00:52.064Z,0
2022-10-13T02:01:55.560Z,0
2022-10-13T02:02:58.367Z,0
2022-10-13T02:04:01.984Z,0
2022-10-13T02:05:05.424Z,0
2022-10-13T02:06:08.599Z,0
2022-10-13T02:07:11.778Z,0
2022-10-13T02:08:15.120Z,0
2022-10-13T02:09:18.577Z,0
2022-10-13T02:10:21.359Z,0
2022-10-13T02:11:24.416Z,0
2022-10-13T02:12:27.477Z,0
2022-10-13T02:13:30.954Z,0
2022-10-13T02:14:33.829Z,0
2022-10-13T02:15:37.453Z,0
2022-10-13T02:16:41.921Z,0
2022-10-13T02:17:45.265Z,0
2022-10-13T02:18:48.123Z,0
2022-10-13T02:19:50.913Z,0
2022-10-13T02:20:54.921Z,0
2022-10-13T02:21:57.982Z,0
2022-10-13T02:23:01.091Z,0
2022-10-13T02:24:04.161Z,0
2022-10-13T02:25:07.240Z,0
2022-10-13T02:26:10.032Z,0
2022-10-13T02:27:13.097Z,0
2022-10-13T02:28:15.731Z,0
2022-10-13T02:29:19.020Z,0
2022-10-13T02:30:22.176Z,0
2022-10-13T02:31:25.813Z,0
2022-10-13T02:32:29.948Z,0
2022-10-13T02:33:33.095Z,0
2022-10-13T02:34:36.592Z,0
2022-10-13T02:35:39.505Z,0
2022-10-13T02:36:42.134Z,0
2022-10-13T02:37:45.103Z,0
2022-10-13T02:38:47.914Z,0
2022-10-13T02:39:50.629Z,0
2022-10-13T02:40:53.903Z,0
2022-10-13T02:41:56.777Z,0
2022-10-13T02:42:59.890Z,0
2022-10-13T02:44:02.340Z,0
2022-10-13T02:45:04.576Z,0
2022-10-13T02:46:07.107Z,0
2022-10-13T02:47:10.000Z,0
2022-10-13T02:48:14.109Z,0
2022-10-13T02:49:17.009Z,0
2022-10-13T02:50:19.873Z,0
2022-10-13T02:51:22.865Z,0
2022-10-13T02:52:25.573Z,0
2022-10-13T02:53:28.589Z,0
2022-10-13T02:54:31.663Z,0
2022-10-13T02:55:34.171Z,0
2022-10-13T02:56:37.252Z,0
2022-10-13T02:57:40.773Z,0
2022-10-13T02:58:42.832Z,0
2022-10-13T02:59:45.997Z,0
2022-10-13T03:00:48.517Z,0
2022-10-13T03:01:51.039Z,0
2022-10-13T03:02:54.561Z,0
2022-10-13T03:03:58.683Z,0
2022-10-13T03:05:01.553Z,0
2022-10-13T03:06:04.346Z,0
2022-10-13T03:07:07.422Z,0
2022-10-13T03:08:10.489Z,0
2022-10-13T03:09:13.389Z,0
2022-10-13T03:10:16.894Z,0
2022-10-13T03:11:19.592Z,0
2022-10-13T03:12:23.019Z,0
2022-10-13T03:13:25.934Z,0
2022-10-13T03:14:28.461Z,0
2022-10-13T03:15:31.618Z,0
2022-10-13T03:16:34.744Z,0
2022-10-13T03:17:37.912Z,0
2022-10-13T03:18:41.341Z,0
2022-10-13T03:19:45.559Z,0
2022-10-13T03:20:47.874Z,0
2022-10-13T03:21:50.396Z,0
2022-10-13T03:22:54.202Z,0
2022-10-13T03:23:56.994Z,0
2022-10-13T03:24:59.934Z,0
2022-10-13T03:26:02.113Z,0
2022-10-13T03:27:05.457Z,0
2022-10-13T03:28:08.340Z,0
2022-10-13T03:29:11.409Z,0
2022-10-13T03:30:14.635Z,0
2022-10-13T03:31:17.496Z,0
2022-10-13T03:32:21.367Z,0
2022-10-13T03:33:25.342Z,0
2022-10-13T03:34:28.519Z,0
2022-10-13T03:35:32.729Z,0
2022-10-13T03:36:35.591Z,0
2022-10-13T03:37:38.766Z,0
2022-10-13T03:38:41.867Z,0
2022-10-13T03:39:45.013Z,0
2022-10-13T03:40:47.456Z,0
2022-10-13T03:41:50.518Z,0
2022-10-13T03:42:53.769Z,0
2022-10-13T03:43:57.224Z,0
2022-10-13T03:44:59.537Z,0
2022-10-13T03:46:02.249Z,0
2022-10-13T03:47:05.306Z,0
2022-10-13T03:48:08.005Z,0
2022-10-13T03:49:10.593Z,0
2022-10-13T03:50:14.045Z,0
2022-10-13T03:51:18.128Z,0
2022-10-13T03:52:21.544Z,0
2022-10-13T03:53:24.622Z,0
2022-10-13T03:54:27.393Z,0
2022-10-13T03:55:29.432Z,0
2022-10-13T03:56:31.666Z,0
2022-10-13T03:57:34.462Z,0
2022-10-13T03:58:37.259Z,0
2022-10-13T03:59:40.209Z,0
2022-10-13T04:00:42.991Z,0
2022-10-13T04:01:46.468Z,0
2022-10-13T04:02:49.897Z,0
2022-10-13T04:03:52.981Z,0
2022-10-13T04:04:56.208Z,0
2022-10-13T04:05:59.336Z,0
2022-10-13T04:07:03.522Z,0
2022-10-13T04:08:06.863Z,0
2022-10-13T04:09:09.952Z,0
2022-10-13T04:10:13.093Z,0
2022-10-13T04:11:16.257Z,0
2022-10-13T04:12:20.996Z,0
2022-10-13T04:13:25.908Z,0
2022-10-13T04:14:29.054Z,0
2022-10-13T04:15:32.115Z,0
2022-10-13T04:16:34.839Z,0
2022-10-13T04:17:38.282Z,0
2022-10-13T04:18:44.410Z,0
2022-10-13T04:19:47.664Z,0
2022-10-13T04:20:50.366Z,0
2022-10-13T04:21:53.539Z,0
2022-10-13T04:22:57.957Z,0
2022-10-13T04:24:01.109Z,0
2022-10-13T04:25:04.236Z,0
2022-10-13T04:26:06.471Z,0
2022-10-13T04:27:09.034Z,0
2022-10-13T04:28:12.425Z,0
2022-10-13T04:29:16.508Z,0
2022-10-13T04:30:19.684Z,0
2022-10-13T04:31:22.483Z,0
2022-10-13T04:32:25.072Z,0
2022-10-13T04:33:27.912Z,0
2022-10-13T04:34:31.644Z,0
2022-10-13T04:35:35.103Z,0
2022-10-13T04:36:38.094Z,0
2022-10-13T04:37:44.903Z,0
2022-10-13T04:38:49.530Z,0
2022-10-13T04:39:52.979Z,0
2022-10-13T04:40:56.653Z,0
2022-10-13T04:41:59.164Z,0
2022-10-13T04:43:02.550Z,0
2022-10-13T04:44:06.008Z,0
2022-10-13T04:45:08.432Z,0
2022-10-13T04:46:11.519Z,0
2022-10-13T04:47:14.329Z,0
2022-10-13T04:48:16.556Z,0
2022-10-13T04:49:18.517Z,0
2022-10-13T04:50:22.236Z,0
2022-10-13T04:51:25.260Z,0
2022-10-13T04:52:28.640Z,0
2022-10-13T04:53:31.109Z,0
2022-10-13T04:54:35.483Z,0
2022-10-13T04:55:37.920Z,0
2022-10-13T04:56:40.728Z,0
2022-10-13T04:57:43.798Z,0
2022-10-13T04:58:47.233Z,0
2022-10-13T04:59:49.952Z,4
2022-10-13T05:00:52.903Z,4
2022-10-13T05:01:56.107Z,0
2022-10-13T05:02:59.554Z,4
2022-10-13T05:04:02.442Z,4
2022-10-13T05:05:05.900Z,4
2022-10-13T05:06:08.793Z,4
2022-10-13T05:07:17.774Z,8
2022-10-13T05:08:21.564Z,8
2022-10-13T05:09:24.070Z,12
2022-10-13T05:10:31.296Z,8
2022-10-13T05:11:37.293Z,12
2022-10-13T05:12:39.898Z,12
2022-10-13T05:13:42.410Z,16
2022-10-13T05:14:45.503Z,20
2022-10-13T05:15:48.677Z,24
2022-10-13T05:16:52.188Z,32
2022-10-13T05:17:55.808Z,36
2022-10-13T05:18:59.020Z,40
2022-10-13T05:20:01.831Z,48
2022-10-13T05:21:04.505Z,52
2022-10-13T05:22:07.678Z,64
2022-10-13T05:23:10.594Z,76
2022-10-13T05:24:13.107Z,84
2022-10-13T05:25:16.374Z,96
2022-10-13T05:26:20.826Z,112
2022-10-13T05:27:23.977Z,132
2022-10-13T05:28:27.467Z,152
2022-10-13T05:29:31.023Z,176
2022-10-13T05:30:34.135Z,196
2022-10-13T05:31:37.577Z,212
2022-10-13T05:32:40.406Z,232
2022-10-13T05:33:43.210Z,252
2022-10-13T05:34:46.917Z,276
2022-10-13T05:35:49.563Z,300
2022-10-13T05:36:52.721Z,328
2022-10-13T05:37:56.079Z,352
2022-10-13T05:38:58.606Z,384
2022-10-13T05:40:02.305Z,420
2022-10-13T05:41:05.424Z,460
2022-10-13T05:42:09.537Z,500
2022-10-13T05:43:12.043Z,536
2022-10-13T05:44:14.633Z,572
2022-10-13T05:45:17.171Z,620
2022-10-13T05:46:20.839Z,668
2022-10-13T05:47:23.663Z,716
2022-10-13T05:48:26.459Z,768
2022-10-13T05:49:29.971Z,824
2022-10-13T05:50:33.037Z,896
2022-10-13T05:51:36.034Z,968
2022-10-13T05:52:38.563Z,1100
2022-10-13T05:53:44.431Z,1224
2022-10-13T05:54:59.715Z,1320
2022-10-13T05:56:03.051Z,1344
2022-10-13T05:57:06.333Z,1352
2022-10-13T05:58:10.458Z,1412
2022-10-13T05:59:12.856Z,1508
2022-10-13T06:00:16.679Z,1620
2022-10-13T06:01:18.910Z,1708
2022-10-13T06:02:22.459Z,1804
2022-10-13T06:03:25.821Z,1888
2022-10-13T06:04:28.973Z,1948
2022-10-13T06:05:32.333Z,1952
2022-10-13T06:06:35.136Z,1972
2022-10-13T06:07:38.359Z,2012
2022-10-13T06:08:41.790Z,2112
2022-10-13T06:09:44.709Z,2252
2022-10-13T06:10:48.145Z,2372
2022-10-13T06:11:51.212Z,2544
2022-10-13T06:12:54.595Z,2772
2022-10-13T06:13:58.778Z,2952
2022-10-13T06:15:01.086Z,3160
2022-10-13T06:16:03.872Z,3288
2022-10-13T06:17:07.199Z,3560
2022-10-13T06:18:09.440Z,3604
2022-10-13T06:19:12.584Z,3676
2022-10-13T06:20:16.012Z,3696
2022-10-13T06:21:19.140Z,4008
2022-10-13T06:22:22.876Z,4428
2022-10-13T06:23:26.039Z,4580
2022-10-13T06:24:28.558Z,4620
2022-10-13T06:25:32.255Z,4556
2022-10-13T06:26:34.867Z,4460
2022-10-13T06:27:38.519Z,4468
2022-10-13T06:28:45.160Z,4500
2022-10-13T06:30:02.629Z,4612
2022-10-13T06:31:05.522Z,4808
2022-10-13T06:32:08.746Z,5188
2022-10-13T06:33:11.828Z,5372
2022-10-13T06:34:14.971Z,5332
2022-10-13T06:35:18.151Z,5084
2022-10-13T06:36:20.866Z,4924
2022-10-13T06:37:27.262Z,5212
2022-10-13T06:38:30.922Z,5608
2022-10-13T06:39:34.106Z,5852
2022-10-13T06:40:37.382Z,5976
2022-10-13T06:41:40.240Z,6088
2022-10-13T06:42:42.851Z,6200
2022-10-13T06:43:46.413Z,6276
2022-10-13T06:44:49.566Z,6232
2022-10-13T06:45:53.807Z,6048
2022-10-13T06:46:56.512Z,6040
2022-10-13T06:47:59.855Z,6380
2022-10-13T06:49:02.976Z,7168
2022-10-13T06:50:06.021Z,8368
2022-10-13T06:51:08.743Z,9040
2022-10-13T06:52:11.643Z,9488
2022-10-13T06:53:15.128Z,9652
2022-10-13T06:54:18.646Z,9632
2022-10-13T06:55:22.083Z,9572
2022-10-13T06:56:25.217Z,9488
2022-10-13T06:57:28.017Z,9272
2022-10-13T06:58:31.636Z,9708
2022-10-13T06:59:34.547Z,10036
2022-10-13T07:00:37.089Z,10640
2022-10-13T07:01:41.927Z,11196
2022-10-13T07:02:45.100Z,11448
2022-10-13T07:03:48.266Z,11404
2022-10-13T07:04:51.698Z,11548
2022-10-13T07:05:54.893Z,11952
2022-10-13T07:06:58.313Z,12396
2022-10-13T07:08:01.653Z,12652
2022-10-13T07:09:04.231Z,12900
2022-10-13T07:10:07.578Z,12996
2022-10-13T07:11:15.248Z,12800
2022-10-13T07:12:19.496Z,12752
2022-10-13T07:13:24.479Z,14644
2022-10-13T07:14:28.346Z,25216
2022-10-13T07:15:31.231Z,15720
2022-10-13T07:16:33.943Z,17312
2022-10-13T07:17:38.060Z,20032
2022-10-13T07:18:40.839Z,22496
2022-10-13T07:19:43.642Z,20864
2022-10-13T07:20:46.788Z,24576
2022-10-13T07:21:49.686Z,23552
2022-10-13T07:22:52.686Z,24320
2022-10-13T07:23:55.831Z,25248
2022-10-13T07:24:59.565Z,30656
2022-10-13T07:26:02.430Z,29536
2022-10-13T07:27:07.713Z,30272
2022-10-13T07:28:10.727Z,29344
2022-10-13T07:29:13.428Z,25696
2022-10-13T07:30:15.961Z,24960
2022-10-13T07:31:19.438Z,29312
2022-10-13T07:32:22.801Z,28736
2022-10-13T07:33:26.691Z,29824
2022-10-13T07:34:29.482Z,32064
2022-10-13T07:35:33.183Z,17144
2022-10-13T07:36:36.559Z,25824
2022-10-13T07:37:38.999Z,21760
2022-10-13T07:38:41.945Z,17888
2022-10-13T07:39:45.027Z,15888
2022-10-13T07:40:48.376Z,16524
2022-10-13T07:41:51.478Z,13960
2022-10-13T07:42:54.873Z,13668
2022-10-13T07:43:58.122Z,13932
2022-10-13T07:45:01.303Z,18368
2022-10-13T07:46:04.174Z,14168
2022-10-13T07:47:07.484Z,10376
2022-10-13T07:48:10.454Z,9732
2022-10-13T07:49:16.023Z,10084
2022-10-13T07:50:19.349Z,10632
2022-10-13T07:51:22.933Z,12472
2022-10-13T07:52:26.001Z,10932
2022-10-13T07:53:29.451Z,10544
2022-10-13T07:54:32.817Z,10788
2022-10-13T07:55:35.507Z,11072
2022-10-13T07:56:38.383Z,11648
2022-10-13T07:57:41.833Z,12352
2022-10-13T07:58:44.352Z,13184
2022-10-13T07:59:48.071Z,13892
2022-10-13T08:00:51.017Z,14480
2022-10-13T08:01:53.934Z,14844
2022-10-13T08:02:57.284Z,15344
2022-10-13T08:04:01.356Z,15264
2022-10-13T08:05:05.641Z,16536
2022-10-13T08:06:08.514Z,18016
2022-10-13T08:07:11.297Z,20000
2022-10-13T08:08:15.116Z,23040
2022-10-13T08:09:17.828Z,25376
2022-10-13T08:10:20.995Z,28960
2022-10-13T08:11:23.888Z,37920
2022-10-13T08:12:27.614Z,39552
2022-10-13T08:13:30.130Z,33056
2022-10-13T08:14:33.015Z,30400
2022-10-13T08:15:37.069Z,38208
2022-10-13T08:16:39.671Z,30464
2022-10-13T08:17:42.833Z,22496
2022-10-13T08:18:46.236Z,20320
2022-10-13T08:19:49.125Z,17100
2022-10-13T08:20:59.283Z,16028
2022-10-13T08:23:02.735Z,15096
2022-10-13T08:24:05.603Z,15500
2022-10-13T08:25:08.905Z,17192
2022-10-13T08:26:12.071Z,19840
2022-10-13T08:27:14.590Z,28864
2022-10-13T08:28:18.304Z,26016
2022-10-13T08:29:23.688Z,22880
2022-10-13T08:30:27.343Z,22176
2022-10-13T08:31:31.512Z,22816
2022-10-13T08:32:36.160Z,24000
2022-10-13T08:33:38.328Z,26528
2022-10-13T08:34:40.652Z,27840
2022-10-13T08:35:44.165Z,30368
2022-10-13T08:36:48.471Z,30016
2022-10-13T08:37:51.940Z,25184
2022-10-13T08:38:55.712Z,25856
2022-10-13T08:39:59.418Z,25568
2022-10-13T08:41:02.479Z,26272
2022-10-13T08:42:04.975Z,25536
2022-10-13T08:43:08.112Z,23520
2022-10-13T08:44:49.845Z,19584
2022-10-13T08:46:44.997Z,16296
2022-10-13T08:47:48.067Z,16128
2022-10-13T08:48:51.254Z,16316
2022-10-13T08:49:59.202Z,17052
2022-10-13T08:51:03.798Z,16928
2022-10-13T08:52:08.206Z,17132
2022-10-13T08:53:11.086Z,16360
2022-10-13T08:54:13.049Z,16272
2022-10-13T08:55:16.110Z,17592
2022-10-13T08:56:19.847Z,16916
2022-10-13T08:57:23.481Z,16116
2022-10-13T08:58:26.636Z,15324
2022-10-13T08:59:29.246Z,14892
2022-10-13T09:00:32.591Z,14604
2022-10-13T09:01:35.386Z,14052
2022-10-13T09:02:39.322Z,13612
2022-10-13T09:03:42.678Z,13384
2022-10-13T09:04:45.596Z,13628
2022-10-13T09:05:49.010Z,14176
2022-10-13T09:06:52.011Z,14920
2022-10-13T09:07:56.533Z,15472
2022-10-13T09:09:00.466Z,14912
2022-10-13T09:10:03.649Z,13788
2022-10-13T09:11:07.175Z,12760
2022-10-13T09:12:10.055Z,12004
2022-10-13T09:13:12.654Z,11620
2022-10-13T09:14:15.465Z,11708
2022-10-13T09:15:18.834Z,11972
2022-10-13T09:16:22.370Z,12320
2022-10-13T09:17:25.801Z,12584
2022-10-13T09:18:29.236Z,12896
2022-10-13T09:19:32.230Z,13244
2022-10-13T09:20:35.596Z,13840
2022-10-13T09:21:39.106Z,14428
2022-10-13T09:22:41.818Z,14916
2022-10-13T09:23:45.973Z,15328
2022-10-13T09:24:49.096Z,15840
2022-10-13T09:25:52.255Z,16376
2022-10-13T09:26:55.036Z,16792
2022-10-13T09:27:57.630Z,17628
2022-10-13T09:29:00.462Z,19008
2022-10-13T09:30:03.288Z,20928
2022-10-13T09:31:09.073Z,22048
2022-10-13T09:32:17.590Z,24992
2022-10-13T09:33:23.241Z,29632
2022-10-13T09:34:26.102Z,31136
2022-10-13T09:35:29.524Z,31360
2022-10-13T09:36:33.176Z,30784
2022-10-13T09:37:36.644Z,29408
2022-10-13T09:38:39.451Z,28864
2022-10-13T09:39:44.111Z,28992
2022-10-13T09:40:47.858Z,27104
2022-10-13T09:41:51.231Z,26880
2022-10-13T09:42:54.664Z,29440
2022-10-13T09:43:58.610Z,31328
2022-10-13T09:45:01.040Z,33824
2022-10-13T09:46:04.499Z,38240
2022-10-13T09:47:07.768Z,36896
2022-10-13T09:48:11.280Z,36320
2022-10-13T09:49:14.623Z,34496
2022-10-13T09:50:17.724Z,33088
2022-10-13T09:51:20.463Z,31072
2022-10-13T09:52:24.267Z,30944
2022-10-13T09:53:27.455Z,28160
2022-10-13T09:54:30.527Z,26560
2022-10-13T09:55:34.800Z,28512
2022-10-13T09:56:36.794Z,37792
2022-10-13T09:57:40.323Z,43264
2022-10-13T09:58:43.216Z,38272
2022-10-13T09:59:47.592Z,29760
2022-10-13T10:00:51.035Z,26080
2022-10-13T10:01:54.189Z,24544
2022-10-13T10:02:57.463Z,21728
2022-10-13T10:04:00.957Z,20160
2022-10-13T10:05:04.152Z,19744
2022-10-13T10:06:07.735Z,19136
2022-10-13T10:07:10.141Z,19072
2022-10-13T10:08:12.375Z,18912
2022-10-13T10:09:15.249Z,18624
2022-10-13T10:10:17.850Z,18880
2022-10-13T10:11:22.120Z,19296
2022-10-13T10:12:27.623Z,20672
2022-10-13T10:13:31.411Z,20608
2022-10-13T10:14:35.306Z,21344
2022-10-13T10:15:37.806Z,21472
2022-10-13T10:16:40.669Z,20224
2022-10-13T10:17:42.918Z,18592
2022-10-13T10:18:45.210Z,17024
2022-10-13T10:19:48.833Z,16376
2022-10-13T10:20:52.608Z,16464
2022-10-13T10:21:55.457Z,16824
2022-10-13T10:22:57.980Z,17272
2022-10-13T10:24:00.952Z,17748
2022-10-13T10:25:04.159Z,18432
2022-10-13T10:26:06.603Z,19136
2022-10-13T10:27:10.755Z,19744
2022-10-13T10:28:14.536Z,20544
2022-10-13T10:29:18.123Z,21536
2022-10-13T10:30:21.322Z,21728
2022-10-13T10:31:24.186Z,22016
2022-10-13T10:32:27.631Z,23040
2022-10-13T10:33:30.740Z,24992
2022-10-13T10:34:33.268Z,29888
2022-10-13T10:35:36.088Z,28128
2022-10-13T10:36:39.279Z,30272
2022-10-13T10:37:43.283Z,29376
2022-10-13T10:38:46.096Z,35968
2022-10-13T10:39:49.362Z,39264
2022-10-13T10:40:52.186Z,40544
2022-10-13T10:41:55.983Z,41600
2022-10-13T10:43:00.466Z,40896
2022-10-13T10:44:03.183Z,43200
2022-10-13T10:45:06.632Z,44448
2022-10-13T10:46:10.075Z,46944
2022-10-13T10:47:12.862Z,44960
2022-10-13T10:48:18.859Z,41216
2022-10-13T10:49:21.676Z,39168
2022-10-13T10:50:25.419Z,44512
2022-10-13T10:51:28.532Z,44576
2022-10-13T10:52:32.074Z,41248
2022-10-13T10:53:35.075Z,39264
2022-10-13T10:54:38.348Z,41248
2022-10-13T10:55:47.709Z,36928
2022-10-13T10:56:51.102Z,32960
2022-10-13T10:57:54.193Z,30656
2022-10-13T10:58:58.333Z,31296
2022-10-13T11:00:01.781Z,30048
2022-10-13T11:01:05.212Z,33088
2022-10-13T11:02:07.938Z,39200
2022-10-13T11:03:10.754Z,39584
2022-10-13T11:04:14.418Z,40992
2022-10-13T11:05:17.602Z,44928
2022-10-13T11:06:20.122Z,43392
2022-10-13T11:07:23.203Z,38496
2022-10-13T11:08:25.999Z,31424
2022-10-13T11:09:29.082Z,35488
2022-10-13T11:10:32.534Z,38624
2022-10-13T11:11:37.645Z,38880
2022-10-13T11:12:41.319Z,36960
2022-10-13T11:13:44.461Z,35552
2022-10-13T11:14:48.612Z,37088
2022-10-13T11:15:51.425Z,38176
2022-10-13T11:16:54.477Z,30208
2022-10-13T11:17:56.909Z,32416
2022-10-13T11:18:59.977Z,29536
2022-10-13T11:20:02.978Z,26496
2022-10-13T11:21:06.158Z,24256
2022-10-13T11:22:09.229Z,23040
2022-10-13T11:23:11.674Z,23392
2022-10-13T11:24:14.616Z,24800
2022-10-13T11:25:17.767Z,27168
2022-10-13T11:26:20.912Z,30432
2022-10-13T11:27:23.704Z,32032
2022-10-13T11:28:27.588Z,35520
2022-10-13T11:29:30.580Z,37536
2022-10-13T11:30:34.718Z,41376
2022-10-13T11:31:37.807Z,44384
2022-10-13T11:32:40.690Z,42624
2022-10-13T11:33:43.314Z,42176
2022-10-13T11:34:46.384Z,32992
2022-10-13T11:35:49.190Z,34144
2022-10-13T11:36:51.974Z,38176
2022-10-13T11:38:06.326Z,29056
2022-10-13T11:39:20.505Z,34720
2022-10-13T11:40:23.691Z,38080
2022-10-13T11:41:26.787Z,30304
2022-10-13T11:42:29.853Z,29184
2022-10-13T11:43:33.665Z,25024
2022-10-13T11:44:36.460Z,22080
2022-10-13T11:45:40.479Z,27648
2022-10-13T11:46:44.253Z,26560
2022-10-13T11:47:47.407Z,29920
2022-10-13T11:48:50.406Z,28544
2022-10-13T11:49:53.778Z,38720
2022-10-13T11:50:56.594Z,41792
2022-10-13T11:51:59.470Z,59904
2022-10-13T11:53:02.260Z,61440
2022-10-13T11:54:05.612Z,79776
2022-10-13T11:55:08.805Z,75776
2022-10-13T11:56:12.766Z,69280
2022-10-13T11:57:15.838Z,49696
2022-10-13T11:58:18.747Z,42432
2022-10-13T11:59:21.862Z,38912
2022-10-13T12:00:25.205Z,58240
2022-10-13T12:01:29.051Z,78912
2022-10-13T12:02:32.084Z,69792
2022-10-13T12:03:35.519Z,39200
2022-10-13T12:04:42.743Z,29536
2022-10-13T12:05:50.047Z,32160
2022-10-13T12:06:53.586Z,35360
2022-10-13T12:07:56.385Z,34176
2022-10-13T12:08:58.930Z,37472
2022-10-13T12:10:02.004Z,48192
2022-10-13T12:11:05.231Z,52448
2022-10-13T12:12:07.958Z,59232
2022-10-13T12:13:09.950Z,39168
2022-10-13T12:14:13.497Z,39488
2022-10-13T12:15:16.689Z,47328
2022-10-13T12:16:19.914Z,37728
2022-10-13T12:17:24.211Z,47808
2022-10-13T12:18:29.930Z,51424
2022-10-13T12:19:33.007Z,36960
2022-10-13T12:20:35.811Z,42496
2022-10-13T12:21:38.259Z,38944
2022-10-13T12:22:41.711Z,44896
2022-10-13T12:23:44.853Z,32480
2022-10-13T12:24:48.219Z,26528
2022-10-13T12:25:51.394Z,37952
2022-10-13T12:26:54.384Z,73696
2022-10-13T12:27:57.838Z,46240
2022-10-13T12:29:01.361Z,34848
2022-10-13T12:30:04.450Z,23968
2022-10-13T12:31:08.059Z,29504
2022-10-13T12:32:10.771Z,21760
2022-10-13T12:33:15.346Z,20544
2022-10-13T12:34:18.325Z,31456
2022-10-13T12:35:21.489Z,20608
2022-10-13T12:36:24.223Z,20032
2022-10-13T12:37:27.372Z,21856
2022-10-13T12:38:30.452Z,26976
2022-10-13T12:39:33.324Z,18624
2022-10-13T12:40:36.108Z,18176
2022-10-13T12:41:40.180Z,19264
2022-10-13T12:42:43.628Z,20672
2022-10-13T12:43:45.941Z,19840
2022-10-13T12:44:48.931Z,20800
2022-10-13T12:45:51.820Z,20480
2022-10-13T12:46:55.050Z,19584
2022-10-13T12:47:58.127Z,19648
2022-10-13T12:49:02.466Z,20512
2022-10-13T12:50:05.709Z,21440
2022-10-13T12:51:09.007Z,22496
2022-10-13T12:52:12.370Z,36864
2022-10-13T12:53:15.557Z,22496
2022-10-13T12:54:19.101Z,22304
2022-10-13T12:55:22.450Z,22272
2022-10-13T12:56:25.801Z,22560
2022-10-13T12:57:28.877Z,21344
2022-10-13T12:58:32.029Z,20192
2022-10-13T12:59:34.550Z,19552
2022-10-13T13:00:38.170Z,18656
2022-10-13T13:01:42.019Z,17548
2022-10-13T13:02:44.947Z,17040
2022-10-13T13:03:48.087Z,18720
2022-10-13T13:04:52.389Z,19520
2022-10-13T13:05:59.906Z,19712
2022-10-13T13:07:03.917Z,19168
2022-10-13T13:08:07.281Z,18816
2022-10-13T13:09:10.440Z,18592
2022-10-13T13:10:13.888Z,20256
2022-10-13T13:11:17.343Z,18816
2022-10-13T13:12:20.571Z,18592
2022-10-13T13:13:25.384Z,17472
2022-10-13T13:14:28.836Z,16964
2022-10-13T13:15:32.177Z,16952
2022-10-13T13:16:35.259Z,17496
2022-10-13T13:17:56.961Z,17700
2022-10-13T13:19:02.309Z,17592
2022-10-13T13:20:06.489Z,16712
2022-10-13T13:21:09.939Z,16932
2022-10-13T13:22:12.749Z,17316
2022-10-13T13:23:15.538Z,19104
2022-10-13T13:24:28.729Z,19296
2022-10-13T13:25:43.282Z,19136
2022-10-13T13:26:46.474Z,18656
2022-10-13T13:27:49.571Z,18496
2022-10-13T13:28:52.766Z,17872
2022-10-13T13:29:56.265Z,17724
2022-10-13T13:30:59.861Z,17424
2022-10-13T13:32:03.325Z,19552
2022-10-13T13:33:06.247Z,17084
2022-10-13T13:34:09.495Z,17016
2022-10-13T13:35:13.665Z,15060
2022-10-13T13:36:16.639Z,13512
2022-10-13T13:37:19.385Z,12820
2022-10-13T13:38:24.275Z,12348
2022-10-13T13:39:27.148Z,12300
2022-10-13T13:40:30.611Z,12040
2022-10-13T13:41:34.136Z,11828
2022-10-13T13:42:37.594Z,11932
2022-10-13T13:43:41.115Z,12424
2022-10-13T13:44:44.293Z,12492
2022-10-13T13:45:47.468Z,12372
2022-10-13T13:46:50.342Z,13488
2022-10-13T13:47:56.870Z,14748
2022-10-13T13:49:03.593Z,14800
2022-10-13T13:50:07.361Z,14544
2022-10-13T13:51:11.606Z,15744
2022-10-13T13:52:14.775Z,21536
2022-10-13T13:53:17.308Z,20544
2022-10-13T13:54:20.372Z,19680
2022-10-13T13:55:23.766Z,17472
2022-10-13T13:56:26.570Z,15072
2022-10-13T13:57:29.647Z,13056
2022-10-13T13:58:33.033Z,11912
2022-10-13T13:59:36.728Z,11200
2022-10-13T14:00:39.844Z,10208
2022-10-13T14:01:43.347Z,10104
2022-10-13T14:02:46.965Z,9720
2022-10-13T14:03:49.486Z,9864
2022-10-13T14:04:52.387Z,10860
2022-10-13T14:05:55.768Z,9764
2022-10-13T14:06:59.892Z,9156
2022-10-13T14:08:03.079Z,8008
2022-10-13T14:09:06.036Z,8664
2022-10-13T14:10:08.843Z,10176
2022-10-13T14:11:12.275Z,12140
2022-10-13T14:12:14.865Z,12876
2022-10-13T14:13:18.401Z,11492
2022-10-13T14:14:21.312Z,10092
2022-10-13T14:15:27.309Z,9300
2022-10-13T14:16:32.749Z,8680
2022-10-13T14:17:35.829Z,7816
2022-10-13T14:18:38.977Z,7000
2022-10-13T14:19:42.431Z,6424
2022-10-13T14:20:45.885Z,6532
2022-10-13T14:21:48.543Z,7032
2022-10-13T14:22:52.642Z,8500
2022-10-13T14:23:55.444Z,9900
2022-10-13T14:24:58.244Z,11296
2022-10-13T14:26:01.102Z,12188